Time;durP1;ratioP1;P1;durP2;ratioP2;P2;SDS_P1;SDS_P2;PMS_P1;PMS_P2;Temp;Humidity;BMP_temperature;BMP_pressure;BME280_temperature;BME280_humidity;BME280_pressure;Samples;Min_cycle;Max_cycle;Signal;HPM_P1;HPM_P2
2021/09/03 00:01:33;;;;;;;18.57;12.13;;;14.20;98.30;;;;;;4075491;29;20481;-83
2021/09/03 00:03:36;;;;;;;24.20;13.60;;;14.10;98.30;;;;;;4068662;29;20569;-82
2021/09/03 00:05:39;;;;;;;20.17;12.13;;;14.00;98.30;;;;;;4077932;29;21060;-83
2021/09/03 00:07:43;;;;;;;20.80;12.97;;;14.00;98.30;;;;;;4076564;29;20505;-83
2021/09/03 00:09:45;;;;;;;25.03;12.63;;;13.90;98.30;;;;;;4077659;29;20529;-83
2021/09/03 00:11:48;;;;;;;21.83;13.20;;;13.90;98.30;;;;;;4076445;29;20478;-83
2021/09/03 00:13:53;;;;;;;21.17;12.67;;;13.90;98.30;;;;;;4067378;29;20478;-80
2021/09/03 00:15:56;;;;;;;25.90;14.30;;;13.80;98.30;;;;;;4074825;29;20989;-80
2021/09/03 00:18:02;;;;;;;23.80;12.37;;;13.80;98.30;;;;;;4075925;29;21061;-81
2021/09/03 00:20:06;;;;;;;25.13;14.00;;;13.80;98.30;;;;;;4070793;29;20525;-80
2021/09/03 00:22:09;;;;;;;19.27;13.30;;;13.80;98.30;;;;;;4079076;29;20470;-80
2021/09/03 00:24:12;;;;;;;23.87;13.17;;;13.80;98.30;;;;;;4079597;29;20503;-81
2021/09/03 00:26:15;;;;;;;17.10;12.30;;;13.80;98.30;;;;;;4073445;29;20982;-80
2021/09/03 00:28:18;;;;;;;20.17;14.30;;;13.80;98.30;;;;;;4079324;29;20478;-81
2021/09/03 00:30:22;;;;;;;22.03;12.93;;;13.80;98.30;;;;;;4079071;29;20501;-80
2021/09/03 00:32:25;;;;;;;25.43;12.90;;;13.80;98.30;;;;;;4081706;29;20530;-81
2021/09/03 00:34:28;;;;;;;19.67;11.03;;;13.80;98.30;;;;;;4082278;29;20522;-81
2021/09/03 00:36:31;;;;;;;27.77;12.37;;;13.90;98.30;;;;;;4080625;29;20495;-81
2021/09/03 00:38:34;;;;;;;20.43;12.23;;;13.90;98.30;;;;;;4080618;29;20469;-81
2021/09/03 00:40:37;;;;;;;20.13;12.77;;;13.90;98.30;;;;;;4080381;29;20466;-81
2021/09/03 00:42:40;;;;;;;20.47;12.37;;;13.90;98.30;;;;;;4080873;29;20477;-81
2021/09/03 00:44:43;;;;;;;18.73;11.90;;;13.80;98.30;;;;;;4080295;29;20487;-81
2021/09/03 00:46:48;;;;;;;17.60;11.17;;;13.90;98.30;;;;;;4079847;29;20498;-81
2021/09/03 00:48:50;;;;;;;20.87;12.70;;;13.90;98.30;;;;;;4077642;29;20484;-80
2021/09/03 00:50:54;;;;;;;22.90;12.70;;;13.80;98.30;;;;;;4072689;29;20883;-81
2021/09/03 00:52:58;;;;;;;25.50;12.93;;;13.80;98.30;;;;;;4080612;29;21030;-81
2021/09/03 00:55:01;;;;;;;21.77;13.13;;;13.60;98.30;;;;;;4078646;29;20470;-80
2021/09/03 00:57:05;;;;;;;26.50;12.40;;;13.60;98.30;;;;;;4072579;29;20505;-81
2021/09/03 00:59:08;;;;;;;20.10;12.23;;;13.60;98.30;;;;;;4079001;29;20481;-81
2021/09/03 01:01:11;;;;;;;21.87;13.53;;;13.60;98.30;;;;;;4079266;29;21041;-81
2021/09/03 01:03:16;;;;;;;23.50;13.23;;;13.60;98.30;;;;;;4079287;29;20505;-80
2021/09/03 01:05:22;;;;;;;25.07;12.10;;;13.50;98.30;;;;;;4078205;29;20501;-81
2021/09/03 01:07:25;;;;;;;25.00;13.20;;;13.50;98.30;;;;;;4079134;29;20965;-80
2021/09/03 01:09:28;;;;;;;22.60;12.97;;;13.50;98.30;;;;;;4080585;29;20470;-81
2021/09/03 01:11:31;;;;;;;20.83;12.60;;;13.40;98.30;;;;;;4077450;29;20513;-80
2021/09/03 01:13:34;;;;;;;25.43;12.50;;;13.40;98.30;;;;;;4076871;29;20981;-80
2021/09/03 01:15:37;;;;;;;24.87;12.63;;;13.40;98.30;;;;;;4078744;29;20856;-80
2021/09/03 01:17:40;;;;;;;23.30;12.97;;;13.30;98.30;;;;;;4084820;29;20549;-80
2021/09/03 01:19:45;;;;;;;28.23;13.10;;;13.30;98.30;;;;;;4085725;29;20473;-80
2021/09/03 01:21:50;;;;;;;22.77;12.80;;;13.30;98.30;;;;;;4078549;29;20471;-81
2021/09/03 01:23:53;;;;;;;21.97;13.10;;;13.30;98.30;;;;;;4073736;29;21051;-80
2021/09/03 01:25:56;;;;;;;24.10;13.27;;;13.20;98.30;;;;;;4080175;29;20478;-80
2021/09/03 01:27:59;;;;;;;23.37;12.30;;;13.20;98.30;;;;;;4076069;29;20486;-81
2021/09/03 01:30:02;;;;;;;20.37;11.90;;;13.20;98.30;;;;;;4081209;29;20478;-80
2021/09/03 01:32:06;;;;;;;20.57;11.93;;;13.20;98.30;;;;;;4070205;29;20506;-80
2021/09/03 01:34:08;;;;;;;20.33;12.00;;;13.20;98.30;;;;;;4080606;29;20467;-81
2021/09/03 01:36:11;;;;;;;22.57;11.63;;;13.20;98.30;;;;;;4080313;29;20517;-81
2021/09/03 01:38:16;;;;;;;24.10;12.47;;;13.20;98.30;;;;;;4080580;29;20479;-80
2021/09/03 01:40:19;;;;;;;26.87;12.90;;;13.20;98.30;;;;;;4072538;29;20479;-80
2021/09/03 01:42:22;;;;;;;25.30;10.83;;;13.20;98.30;;;;;;4081698;29;20497;-80
2021/09/03 01:44:25;;;;;;;16.80;11.27;;;13.30;98.30;;;;;;4074355;29;20971;-80
2021/09/03 01:46:27;;;;;;;19.37;13.70;;;13.30;98.30;;;;;;4082120;29;20490;-80
2021/09/03 01:48:30;;;;;;;23.17;11.93;;;13.30;98.30;;;;;;4082971;29;20887;-80
2021/09/03 01:50:33;;;;;;;20.07;12.63;;;13.30;98.30;;;;;;4083232;29;20474;-80
2021/09/03 01:52:36;;;;;;;17.53;11.47;;;13.30;98.30;;;;;;4083395;29;20498;-80
2021/09/03 01:54:40;;;;;;;23.70;11.40;;;13.30;98.30;;;;;;4080714;29;20466;-80
2021/09/03 01:56:44;;;;;;;22.20;11.47;;;13.20;98.30;;;;;;4087560;29;20546;-80
2021/09/03 01:58:47;;;;;;;21.87;12.17;;;13.20;98.30;;;;;;4093851;29;20494;-81
2021/09/03 02:00:49;;;;;;;23.83;11.87;;;13.20;98.30;;;;;;4095092;29;20525;-80
2021/09/03 02:02:53;;;;;;;19.97;10.50;;;13.10;98.30;;;;;;4086809;29;20497;-80
2021/09/03 02:04:56;;;;;;;19.20;11.67;;;13.10;98.30;;;;;;4085881;29;20621;-79
2021/09/03 02:06:59;;;;;;;22.63;12.50;;;13.10;98.30;;;;;;4087686;29;20494;-80
2021/09/03 02:09:02;;;;;;;22.30;14.80;;;13.10;98.30;;;;;;4081100;29;20482;-80
2021/09/03 02:11:06;;;;;;;20.70;11.77;;;13.10;98.30;;;;;;4082252;29;20484;-80
2021/09/03 02:13:09;;;;;;;21.47;12.50;;;13.10;98.30;;;;;;4082738;29;20483;-80
2021/09/03 02:15:12;;;;;;;19.40;12.60;;;13.00;98.30;;;;;;4080400;29;20463;-80
2021/09/03 02:17:15;;;;;;;22.17;11.33;;;13.00;98.30;;;;;;4073106;29;20494;-81
2021/09/03 02:19:18;;;;;;;26.23;13.00;;;13.00;98.30;;;;;;4077438;29;21298;-80
2021/09/03 02:21:21;;;;;;;21.87;11.90;;;12.90;98.30;;;;;;4073242;29;20463;-81
2021/09/03 02:23:24;;;;;;;17.37;12.10;;;12.90;98.30;;;;;;4082651;29;20948;-81
2021/09/03 02:25:27;;;;;;;21.10;11.63;;;12.90;98.30;;;;;;4083303;29;20811;-80
2021/09/03 02:27:31;;;;;;;19.77;11.40;;;12.90;98.30;;;;;;4081696;29;20561;-81
2021/09/03 02:29:34;;;;;;;20.00;10.90;;;12.90;98.30;;;;;;4082021;29;20511;-80
2021/09/03 02:31:37;;;;;;;25.17;11.67;;;13.00;98.30;;;;;;4080182;29;20552;-80
2021/09/03 02:33:40;;;;;;;15.97;11.20;;;13.00;98.30;;;;;;4080990;29;20481;-80
2021/09/03 02:35:43;;;;;;;16.43;10.20;;;13.00;98.30;;;;;;4072502;29;20465;-80
2021/09/03 02:37:46;;;;;;;19.00;11.10;;;13.10;98.30;;;;;;4077056;29;20499;-82
2021/09/03 02:39:49;;;;;;;18.30;11.47;;;13.10;98.30;;;;;;4077722;29;21045;-82
2021/09/03 02:41:52;;;;;;;19.37;11.57;;;13.10;98.30;;;;;;4068579;29;20467;-82
2021/09/03 02:43:56;;;;;;;18.40;10.83;;;13.10;98.30;;;;;;4076874;29;21085;-82
2021/09/03 02:45:59;;;;;;;17.80;11.20;;;13.10;98.30;;;;;;4080148;29;20489;-82
2021/09/03 02:48:02;;;;;;;19.67;11.57;;;13.10;98.30;;;;;;4077707;29;20498;-82
2021/09/03 02:50:06;;;;;;;19.83;11.00;;;13.20;98.30;;;;;;4081620;29;20974;-82
2021/09/03 02:52:08;;;;;;;20.17;11.17;;;13.20;98.30;;;;;;4078334;29;20491;-82
2021/09/03 02:54:11;;;;;;;19.23;11.37;;;13.20;98.30;;;;;;4085076;29;20486;-82
2021/09/03 02:56:14;;;;;;;27.37;14.00;;;13.30;98.30;;;;;;4081051;29;20482;-82
2021/09/03 02:58:17;;;;;;;20.73;11.30;;;13.30;98.30;;;;;;4072185;29;20474;-83
2021/09/03 03:00:22;;;;;;;19.57;11.30;;;13.40;98.30;;;;;;4081312;29;20467;-83
2021/09/03 03:02:25;;;;;;;20.20;10.83;;;13.40;98.30;;;;;;4079258;29;20479;-82
2021/09/03 03:04:28;;;;;;;19.40;11.50;;;13.50;98.30;;;;;;4083488;29;20497;-82
2021/09/03 03:06:31;;;;;;;17.60;10.60;;;13.40;98.30;;;;;;4081025;29;20498;-82
2021/09/03 03:08:34;;;;;;;19.80;11.20;;;13.50;98.30;;;;;;4075673;29;20484;-80
2021/09/03 03:10:36;;;;;;;21.33;11.50;;;13.50;98.30;;;;;;4075464;29;20962;-80
2021/09/03 03:12:39;;;;;;;17.83;10.63;;;13.50;98.30;;;;;;4070885;29;20499;-81
2021/09/03 03:14:42;;;;;;;21.60;12.17;;;13.50;98.30;;;;;;4080313;29;20474;-81
2021/09/03 03:16:46;;;;;;;20.30;11.27;;;13.50;98.30;;;;;;4080357;29;20972;-81
2021/09/03 03:18:49;;;;;;;23.13;11.37;;;13.60;98.30;;;;;;4084977;29;20486;-81
2021/09/03 03:20:52;;;;;;;19.47;12.17;;;13.60;98.30;;;;;;4079917;29;20495;-81
2021/09/03 03:22:55;;;;;;;18.70;12.40;;;13.60;98.30;;;;;;4074220;29;20477;-80
2021/09/03 03:24:58;;;;;;;18.90;11.80;;;13.60;98.30;;;;;;4078450;29;21042;-80
2021/09/03 03:27:02;;;;;;;21.23;12.17;;;13.60;98.30;;;;;;4081238;29;20499;-80
2021/09/03 03:29:05;;;;;;;19.30;11.30;;;13.60;98.30;;;;;;4075774;29;20896;-80
2021/09/03 03:31:08;;;;;;;24.10;12.77;;;13.70;98.30;;;;;;4080752;29;20490;-80
2021/09/03 03:33:12;;;;;;;22.40;11.70;;;13.70;98.30;;;;;;4077900;29;20499;-80
2021/09/03 03:35:15;;;;;;;24.63;13.03;;;13.70;98.30;;;;;;4079727;29;20475;-80
2021/09/03 03:37:18;;;;;;;26.53;13.13;;;13.70;98.30;;;;;;4078288;29;20602;-80
2021/09/03 03:39:21;;;;;;;20.50;11.23;;;13.70;98.30;;;;;;4079377;29;20488;-80
2021/09/03 03:41:24;;;;;;;23.70;13.13;;;13.70;98.30;;;;;;4079101;29;20486;-80
2021/09/03 03:43:26;;;;;;;21.27;12.03;;;13.60;98.30;;;;;;4074707;29;20465;-80
2021/09/03 03:45:29;;;;;;;18.40;11.73;;;13.70;98.30;;;;;;4078274;29;20482;-81
2021/09/03 03:47:32;;;;;;;27.77;13.70;;;13.70;98.30;;;;;;4078253;29;21077;-80
2021/09/03 03:49:36;;;;;;;21.60;12.53;;;13.70;98.30;;;;;;4081639;29;21089;-81
2021/09/03 03:51:39;;;;;;;21.73;12.70;;;13.70;98.30;;;;;;4079485;29;20490;-81
2021/09/03 03:53:43;;;;;;;23.53;12.73;;;13.80;98.30;;;;;;4076176;29;20501;-80
2021/09/03 03:55:45;;;;;;;27.60;13.00;;;13.70;98.30;;;;;;4071082;29;20498;-80
2021/09/03 03:57:48;;;;;;;24.00;12.70;;;13.70;98.30;;;;;;4079691;29;20489;-82
2021/09/03 03:59:51;;;;;;;21.70;12.60;;;13.70;98.30;;;;;;4080100;29;20472;-82
2021/09/03 04:01:54;;;;;;;25.10;12.63;;;13.70;98.30;;;;;;4079712;29;20529;-82
2021/09/03 04:03:57;;;;;;;23.00;13.27;;;13.70;98.30;;;;;;4073538;29;20481;-82
2021/09/03 04:06:01;;;;;;;27.20;12.90;;;13.70;98.30;;;;;;4074800;29;20479;-82
2021/09/03 04:08:05;;;;;;;23.07;14.80;;;13.80;98.30;;;;;;4072828;29;20536;-82
2021/09/03 04:10:08;;;;;;;23.80;12.30;;;13.80;98.30;;;;;;4069450;29;20483;-82
2021/09/03 04:12:11;;;;;;;21.07;13.83;;;13.90;98.30;;;;;;4078121;29;20474;-82
2021/09/03 04:14:15;;;;;;;25.70;12.10;;;13.90;98.30;;;;;;4079776;29;20481;-82
2021/09/03 04:16:18;;;;;;;26.70;14.00;;;13.90;98.30;;;;;;4073084;29;20962;-82
2021/09/03 04:18:21;;;;;;;26.67;13.17;;;13.90;98.30;;;;;;4069900;29;20474;-82
2021/09/03 04:20:24;;;;;;;29.43;14.40;;;14.00;98.30;;;;;;4077843;29;20843;-81
2021/09/03 04:22:29;;;;;;;20.70;12.50;;;14.00;98.30;;;;;;4073574;29;20572;-81
2021/09/03 04:24:31;;;;;;;26.40;14.50;;;14.10;98.30;;;;;;4082294;29;20487;-81
2021/09/03 04:26:34;;;;;;;27.73;13.97;;;14.10;98.30;;;;;;4077681;29;20898;-81
2021/09/03 04:28:37;;;;;;;22.67;13.27;;;14.20;98.30;;;;;;4081457;29;20542;-81
2021/09/03 04:30:40;;;;;;;23.73;12.80;;;14.20;98.30;;;;;;4080281;29;20479;-81
2021/09/03 04:32:43;;;;;;;21.60;12.40;;;14.20;98.30;;;;;;4078653;29;20487;-81
2021/09/03 04:34:46;;;;;;;19.53;13.33;;;14.30;98.30;;;;;;4074644;29;20972;-81
2021/09/03 04:36:49;;;;;;;23.83;12.70;;;14.30;98.30;;;;;;4077803;29;20496;-81
2021/09/03 04:38:54;;;;;;;27.43;13.90;;;14.40;98.30;;;;;;4082010;29;20470;-81
2021/09/03 04:40:57;;;;;;;23.00;13.40;;;14.40;98.30;;;;;;4075303;29;20886;-81
2021/09/03 04:43:00;;;;;;;23.07;13.77;;;14.40;98.30;;;;;;4074086;29;20561;-81
2021/09/03 04:45:03;;;;;;;20.97;12.50;;;14.40;98.30;;;;;;4074207;29;20561;-82
2021/09/03 04:47:11;;;;;;;23.77;14.20;;;14.50;98.30;;;;;;4072487;29;20498;-83
2021/09/03 04:49:14;;;;;;;29.00;14.47;;;14.50;98.30;;;;;;4081957;29;20541;-82
2021/09/03 04:51:17;;;;;;;22.60;13.33;;;14.50;98.30;;;;;;4081738;29;20488;-82
2021/09/03 04:53:19;;;;;;;22.17;15.20;;;14.50;98.30;;;;;;4076376;29;21099;-82
2021/09/03 04:55:40;;;;;;;21.33;13.33;;;14.50;98.30;;;;;;4077058;29;20486;-82
2021/09/03 04:57:46;;;;;;;20.10;12.47;;;14.60;98.30;;;;;;4066281;29;20495;-83
2021/09/03 04:59:49;;;;;;;30.73;14.27;;;14.70;98.30;;;;;;4066340;29;21046;-82
2021/09/03 05:01:52;;;;;;;29.17;13.43;;;14.60;98.30;;;;;;4070863;29;20479;-82
2021/09/03 05:03:55;;;;;;;24.40;14.23;;;14.60;98.30;;;;;;4065130;29;21227;-82
2021/09/03 05:05:58;;;;;;;23.13;12.90;;;14.60;98.30;;;;;;4069730;29;20481;-82
2021/09/03 05:08:01;;;;;;;26.27;14.80;;;14.60;98.30;;;;;;4070288;29;20471;-82
2021/09/03 05:10:09;;;;;;;24.63;13.57;;;14.60;98.30;;;;;;4067899;29;20482;-82
2021/09/03 05:12:13;;;;;;;21.40;13.80;;;14.70;98.30;;;;;;4072793;29;20477;-82
2021/09/03 05:14:16;;;;;;;28.20;12.40;;;14.70;98.30;;;;;;4067212;29;20589;-82
2021/09/03 05:16:19;;;;;;;22.37;12.93;;;14.80;98.30;;;;;;4067628;29;20463;-82
2021/09/03 05:18:22;;;;;;;25.60;13.60;;;14.80;98.30;;;;;;4072983;29;20584;-83
2021/09/03 05:20:25;;;;;;;25.93;13.10;;;14.80;98.30;;;;;;4075500;29;20462;-82
2021/09/03 05:22:31;;;;;;;29.03;13.80;;;14.80;98.30;;;;;;4069097;29;20485;-82
2021/09/03 05:24:34;;;;;;;26.77;13.73;;;14.90;98.30;;;;;;4069077;29;20562;-82
2021/09/03 05:26:37;;;;;;;25.27;14.80;;;15.00;98.30;;;;;;4072430;29;20577;-82
2021/09/03 05:28:41;;;;;;;21.00;13.17;;;15.00;98.30;;;;;;4069225;29;20479;-83
2021/09/03 05:30:47;;;;;;;22.53;12.83;;;15.00;98.30;;;;;;4069461;29;20459;-82
2021/09/03 05:32:52;;;;;;;19.87;13.10;;;15.00;98.30;;;;;;4080701;29;20478;-82
2021/09/03 05:34:55;;;;;;;19.87;14.50;;;15.10;98.30;;;;;;4071415;29;20490;-82
2021/09/03 05:36:58;;;;;;;27.70;14.63;;;15.10;98.30;;;;;;4069179;29;20493;-82
2021/09/03 05:39:01;;;;;;;23.30;14.00;;;15.20;98.30;;;;;;4072293;29;20574;-82
2021/09/03 05:41:04;;;;;;;24.43;14.37;;;15.20;98.30;;;;;;4075200;29;20479;-82
2021/09/03 05:43:08;;;;;;;23.73;13.17;;;15.10;98.30;;;;;;4080929;29;20476;-82
2021/09/03 05:45:13;;;;;;;27.30;14.53;;;15.10;98.30;;;;;;4078896;29;20566;-82
2021/09/03 05:47:16;;;;;;;20.90;11.93;;;15.10;98.30;;;;;;4072335;29;20506;-82
2021/09/03 05:49:21;;;;;;;22.53;13.97;;;15.10;98.30;;;;;;4076615;29;20491;-82
2021/09/03 05:51:24;;;;;;;21.20;13.37;;;15.10;98.30;;;;;;4077064;29;20896;-82
2021/09/03 05:53:27;;;;;;;26.00;13.30;;;15.00;98.30;;;;;;4072347;29;20471;-82
2021/09/03 05:55:30;;;;;;;21.33;12.90;;;15.00;98.30;;;;;;4077017;29;20505;-82
2021/09/03 05:57:33;;;;;;;19.50;12.50;;;15.00;98.30;;;;;;4082092;29;20493;-82
2021/09/03 05:59:36;;;;;;;23.90;13.67;;;15.00;98.30;;;;;;4084433;29;20482;-82
2021/09/03 06:01:40;;;;;;;20.47;13.00;;;15.00;98.30;;;;;;4082421;29;20478;-82
2021/09/03 06:03:44;;;;;;;24.50;14.30;;;15.00;98.30;;;;;;4068251;29;20527;-82
2021/09/03 06:05:47;;;;;;;30.50;13.73;;;15.10;98.30;;;;;;4073616;29;20956;-82
2021/09/03 06:07:50;;;;;;;27.73;13.37;;;15.20;98.30;;;;;;4073643;29;20498;-82
2021/09/03 06:09:53;;;;;;;26.17;15.30;;;15.20;98.30;;;;;;4069355;29;20475;-82
2021/09/03 06:11:57;;;;;;;24.90;13.60;;;15.20;98.30;;;;;;4086460;29;20486;-83
2021/09/03 06:14:00;;;;;;;25.57;13.63;;;15.30;98.30;;;;;;4091556;29;20498;-82
2021/09/03 06:16:03;;;;;;;25.40;14.03;;;15.30;98.30;;;;;;4086383;29;20439;-82
2021/09/03 06:18:07;;;;;;;32.60;15.27;;;15.40;98.30;;;;;;4094054;29;20454;-82
2021/09/03 06:20:12;;;;;;;29.37;15.23;;;15.50;98.30;;;;;;4093859;28;20530;-82
2021/09/03 06:22:15;;;;;;;31.97;18.27;;;15.60;98.30;;;;;;4095155;29;20471;-82
2021/09/03 06:24:30;;;;;;;29.43;15.30;;;15.60;98.30;;;;;;4081763;29;20546;-82
2021/09/03 06:26:33;;;;;;;22.57;12.77;;;15.60;98.30;;;;;;4076794;29;20533;-82
2021/09/03 06:28:36;;;;;;;20.70;14.23;;;15.60;98.30;;;;;;4070624;29;20471;-82
2021/09/03 06:30:39;;;;;;;21.70;13.87;;;15.50;98.30;;;;;;4082200;29;20466;-82
2021/09/03 06:32:43;;;;;;;21.40;12.47;;;15.60;98.30;;;;;;4078217;29;20475;-82
2021/09/03 06:34:49;;;;;;;29.93;13.63;;;15.60;98.30;;;;;;4075424;29;20856;-82
2021/09/03 06:36:52;;;;;;;34.07;20.33;;;15.70;98.30;;;;;;4076019;29;20517;-82
2021/09/03 06:38:55;;;;;;;35.10;18.23;;;15.80;98.30;;;;;;4067987;29;20475;-82
2021/09/03 06:40:58;;;;;;;35.97;18.97;;;15.90;98.30;;;;;;4068523;29;20475;-82
2021/09/03 06:43:01;;;;;;;25.73;13.60;;;15.90;98.30;;;;;;4078109;29;20483;-82
2021/09/03 06:45:04;;;;;;;25.63;14.20;;;16.00;98.30;;;;;;4074899;29;20474;-82
2021/09/03 06:47:11;;;;;;;21.90;12.63;;;16.00;98.30;;;;;;4077499;29;21010;-82
2021/09/03 06:49:14;;;;;;;20.60;11.70;;;16.00;98.30;;;;;;4073550;29;20475;-82
2021/09/03 06:51:18;;;;;;;25.67;12.57;;;16.10;98.30;;;;;;4078826;29;20479;-82
2021/09/03 06:53:21;;;;;;;18.97;12.90;;;16.00;98.30;;;;;;4080729;29;20492;-82
2021/09/03 06:55:24;;;;;;;23.00;12.77;;;16.10;98.30;;;;;;4067573;29;20574;-82
2021/09/03 06:57:27;;;;;;;18.53;12.00;;;16.00;98.30;;;;;;4067670;29;21020;-82
2021/09/03 06:59:30;;;;;;;19.70;11.87;;;16.00;98.30;;;;;;4067964;29;20907;-82
2021/09/03 07:01:33;;;;;;;19.87;12.47;;;16.00;98.30;;;;;;4080452;29;20963;-82
2021/09/03 07:03:36;;;;;;;17.37;11.10;;;16.00;98.30;;;;;;4067301;29;20489;-82
2021/09/03 07:05:39;;;;;;;17.00;10.60;;;16.10;98.30;;;;;;4067418;29;20467;-82
2021/09/03 07:07:45;;;;;;;19.23;11.07;;;16.10;98.30;;;;;;4067976;29;21049;-82
2021/09/03 07:09:48;;;;;;;20.50;13.20;;;16.10;98.30;;;;;;4067596;29;20463;-82
2021/09/03 07:11:50;;;;;;;20.60;13.63;;;16.20;98.30;;;;;;4073179;29;20474;-82
2021/09/03 07:13:53;;;;;;;32.93;22.67;;;16.30;98.30;;;;;;4072845;29;20919;-82
2021/09/03 07:15:56;;;;;;;19.60;12.90;;;16.40;98.30;;;;;;4075257;29;21010;-83
2021/09/03 07:17:59;;;;;;;17.23;11.90;;;16.40;98.30;;;;;;4067092;29;20495;-82
2021/09/03 07:20:03;;;;;;;17.13;12.30;;;16.40;98.30;;;;;;4067322;29;20486;-82
2021/09/03 07:22:06;;;;;;;19.33;12.20;;;16.50;98.30;;;;;;4067343;29;20505;-82
2021/09/03 07:24:10;;;;;;;18.30;13.00;;;16.40;98.30;;;;;;4067008;29;20554;-82
2021/09/03 07:26:14;;;;;;;15.00;11.17;;;16.40;98.30;;;;;;4067344;29;20943;-82
2021/09/03 07:28:16;;;;;;;18.10;12.10;;;16.50;98.30;;;;;;4067166;29;20483;-82
2021/09/03 07:30:20;;;;;;;17.13;11.70;;;16.50;98.30;;;;;;4072016;29;20482;-83
2021/09/03 07:32:23;;;;;;;18.70;11.93;;;16.50;98.30;;;;;;4080628;29;20569;-82
2021/09/03 07:34:25;;;;;;;16.47;12.77;;;16.50;98.30;;;;;;4075903;29;20572;-82
2021/09/03 07:36:29;;;;;;;17.50;11.07;;;16.50;98.30;;;;;;4067515;29;20491;-82
2021/09/03 07:38:33;;;;;;;17.20;11.23;;;16.60;98.30;;;;;;4067085;29;20486;-82
2021/09/03 07:40:38;;;;;;;17.07;12.03;;;16.70;98.30;;;;;;4068164;29;20467;-82
2021/09/03 07:42:41;;;;;;;15.67;11.80;;;16.80;98.30;;;;;;4071208;29;21246;-82
2021/09/03 07:44:44;;;;;;;15.60;11.20;;;17.00;98.30;;;;;;4067048;29;20474;-82
2021/09/03 07:46:47;;;;;;;17.37;11.03;;;17.00;98.30;;;;;;4073764;29;20489;-82
2021/09/03 07:48:51;;;;;;;17.57;12.27;;;17.10;98.30;;;;;;4067244;29;20578;-82
2021/09/03 07:50:54;;;;;;;19.43;11.43;;;17.10;98.30;;;;;;4068765;29;20481;-82
2021/09/03 07:52:57;;;;;;;16.63;11.93;;;17.20;98.30;;;;;;4067064;29;20491;-82
2021/09/03 07:55:15;;;;;;;14.83;11.27;;;17.30;98.30;;;;;;4075599;29;20521;-82
2021/09/03 07:57:19;;;;;;;15.97;13.33;;;17.40;98.30;;;;;;4066966;29;20544;-82
2021/09/03 07:59:22;;;;;;;22.60;13.03;;;17.50;98.30;;;;;;4074653;29;20495;-82
2021/09/03 08:01:26;;;;;;;21.47;12.43;;;17.70;98.30;;;;;;4075364;29;20513;-82
2021/09/03 08:03:30;;;;;;;23.33;13.20;;;17.90;98.30;;;;;;4074031;29;20554;-82
2021/09/03 08:05:34;;;;;;;26.37;14.40;;;18.00;98.30;;;;;;4066690;29;20475;-82
2021/09/03 08:07:37;;;;;;;20.10;13.87;;;18.10;98.30;;;;;;4066730;29;20499;-83
2021/09/03 08:09:41;;;;;;;18.83;14.00;;;18.30;98.30;;;;;;4066708;29;20534;-82
2021/09/03 08:11:44;;;;;;;17.00;13.20;;;18.30;98.30;;;;;;4068162;29;20467;-82
2021/09/03 08:13:48;;;;;;;20.63;14.20;;;18.30;98.30;;;;;;4077049;29;20515;-83
2021/09/03 08:15:51;;;;;;;18.43;12.57;;;18.30;98.30;;;;;;4067145;29;20541;-82
2021/09/03 08:17:55;;;;;;;20.23;13.40;;;18.30;98.30;;;;;;4075584;29;20576;-82
2021/09/03 08:19:58;;;;;;;28.23;13.30;;;18.30;98.30;;;;;;4076693;29;20850;-82
2021/09/03 08:22:01;;;;;;;19.57;13.50;;;18.30;98.30;;;;;;4068551;29;20479;-82
2021/09/03 08:24:05;;;;;;;20.03;12.80;;;18.40;98.30;;;;;;4081246;29;20481;-82
2021/09/03 08:26:08;;;;;;;19.63;12.77;;;18.60;98.30;;;;;;4076592;29;20485;-82
2021/09/03 08:28:11;;;;;;;16.73;10.70;;;18.60;98.30;;;;;;4082542;29;20894;-82
2021/09/03 08:30:17;;;;;;;18.03;11.57;;;18.60;98.30;;;;;;4072531;29;20562;-82
2021/09/03 08:32:20;;;;;;;19.57;12.20;;;18.70;98.30;;;;;;4075185;29;20470;-82
2021/09/03 08:34:23;;;;;;;15.57;11.67;;;18.70;98.30;;;;;;4072932;29;20513;-82
2021/09/03 08:36:26;;;;;;;16.20;11.17;;;18.70;98.30;;;;;;4073073;29;20539;-82
2021/09/03 08:38:29;;;;;;;22.13;10.37;;;18.70;98.30;;;;;;4069524;29;20481;-82
2021/09/03 08:40:32;;;;;;;11.87;10.10;;;18.50;98.30;;;;;;4076675;29;20498;-82
2021/09/03 08:42:36;;;;;;;15.30;10.00;;;18.50;98.30;;;;;;4068161;29;20481;-82
2021/09/03 08:44:40;;;;;;;12.77;9.53;;;18.70;98.30;;;;;;4069224;29;20565;-82
2021/09/03 08:46:45;;;;;;;15.27;9.67;;;18.80;98.30;;;;;;4069652;29;20521;-82
2021/09/03 08:48:48;;;;;;;15.30;9.30;;;18.90;98.30;;;;;;4077836;29;20481;-82
2021/09/03 08:50:55;;;;;;;21.30;9.60;;;19.00;98.30;;;;;;4069553;29;20488;-82
2021/09/03 08:52:59;;;;;;;13.30;8.37;;;19.10;98.30;;;;;;4069329;29;20547;-82
2021/09/03 08:55:02;;;;;;;11.80;9.03;;;19.10;98.30;;;;;;4068944;29;20482;-82
2021/09/03 08:57:06;;;;;;;20.13;9.37;;;19.30;98.30;;;;;;4069398;29;21146;-82
2021/09/03 08:59:09;;;;;;;14.13;9.60;;;19.50;98.30;;;;;;4072972;29;20474;-82
2021/09/03 09:01:15;;;;;;;12.20;8.63;;;19.60;98.30;;;;;;4074111;29;20471;-82
2021/09/03 09:03:20;;;;;;;15.17;9.60;;;19.60;98.30;;;;;;4074608;29;20895;-82
2021/09/03 09:05:23;;;;;;;12.63;9.17;;;19.60;98.30;;;;;;4069188;29;20478;-82
2021/09/03 09:07:27;;;;;;;11.03;8.83;;;19.70;98.30;;;;;;4073147;29;20504;-82
2021/09/03 09:09:31;;;;;;;10.93;8.47;;;19.80;98.30;;;;;;4078109;29;20571;-82
2021/09/03 09:11:37;;;;;;;14.73;9.37;;;19.70;98.30;;;;;;4069427;29;20479;-82
2021/09/03 09:13:42;;;;;;;12.80;7.60;;;19.80;98.30;;;;;;4070014;29;20459;-82
2021/09/03 09:15:58;;;;;;;13.53;8.87;;;19.90;98.30;;;;;;4085408;29;20489;-82
2021/09/03 09:18:01;;;;;;;12.37;7.97;;;19.90;98.30;;;;;;4069337;29;20508;-82
2021/09/03 09:20:07;;;;;;;17.67;8.03;;;19.90;98.30;;;;;;4069288;29;20566;-82
2021/09/03 09:22:10;;;;;;;18.17;9.40;;;19.90;98.30;;;;;;4077430;29;20518;-82
2021/09/03 09:24:15;;;;;;;14.90;8.83;;;19.90;98.30;;;;;;4078668;29;20565;-82
2021/09/03 09:26:23;;;;;;;12.17;8.20;;;20.10;98.30;;;;;;4076113;28;20551;-82
2021/09/03 09:28:26;;;;;;;16.93;8.83;;;20.30;98.30;;;;;;4076184;29;20475;-83
2021/09/03 09:30:29;;;;;;;14.90;9.00;;;20.60;98.30;;;;;;4079092;29;20474;-83
2021/09/03 09:32:32;;;;;;;11.30;8.70;;;20.70;98.30;;;;;;4069318;29;20566;-82
2021/09/03 09:34:37;;;;;;;14.30;9.83;;;20.80;98.30;;;;;;4069626;29;20477;-82
2021/09/03 09:36:41;;;;;;;16.33;9.63;;;20.80;98.30;;;;;;4069014;29;20537;-82
2021/09/03 09:38:46;;;;;;;13.10;8.73;;;20.80;98.30;;;;;;4069102;29;20886;-82
2021/09/03 09:40:51;;;;;;;16.20;9.10;;;20.70;98.30;;;;;;4068690;29;20471;-83
2021/09/03 09:42:54;;;;;;;35.80;11.30;;;20.90;98.30;;;;;;4075658;29;20474;-82
2021/09/03 09:45:03;;;;;;;36.50;11.10;;;20.80;98.30;;;;;;4072566;29;20964;-82
2021/09/03 09:47:08;;;;;;;17.00;9.10;;;20.80;98.30;;;;;;4081241;29;20501;-82
2021/09/03 09:49:13;;;;;;;13.40;9.80;;;20.90;98.30;;;;;;4084622;29;20497;-82
2021/09/03 09:51:21;;;;;;;13.87;8.77;;;21.10;98.30;;;;;;4082790;29;20474;-82
2021/09/03 09:53:26;;;;;;;15.30;8.40;;;21.20;98.30;;;;;;4083980;29;20480;-82
2021/09/03 09:55:29;;;;;;;15.13;9.87;;;21.30;98.30;;;;;;4068714;29;20463;-82
2021/09/03 09:57:35;;;;;;;15.67;9.27;;;21.40;98.30;;;;;;4068464;29;20507;-82
2021/09/03 09:59:38;;;;;;;16.47;9.57;;;21.20;98.30;;;;;;4074161;29;20510;-83
2021/09/03 10:01:43;;;;;;;12.70;9.23;;;21.40;98.30;;;;;;4076631;29;20478;-82
2021/09/03 10:03:48;;;;;;;16.23;9.80;;;21.30;98.30;;;;;;4075114;29;20485;-82
2021/09/03 10:05:55;;;;;;;15.70;10.40;;;21.50;98.30;;;;;;4078488;29;20508;-82
2021/09/03 10:07:59;;;;;;;12.47;8.93;;;21.70;98.30;;;;;;4081201;29;20509;-83
2021/09/03 10:10:03;;;;;;;16.50;10.77;;;22.10;98.30;;;;;;4071121;29;20570;-83
2021/09/03 10:12:07;;;;;;;16.23;10.00;;;22.50;98.30;;;;;;4068223;29;20475;-82
2021/09/03 10:14:12;;;;;;;15.93;10.70;;;22.90;98.30;;;;;;4067863;29;20475;-83
2021/09/03 10:16:18;;;;;;;12.60;10.63;;;23.00;98.30;;;;;;4068242;29;20488;-83
2021/09/03 10:18:22;;;;;;;14.03;10.60;;;22.80;98.30;;;;;;4067952;29;20538;-82
2021/09/03 10:20:25;;;;;;;15.63;10.37;;;22.50;98.30;;;;;;4072035;29;20566;-83
2021/09/03 10:22:41;;;;;;;14.60;11.27;;;21.80;98.30;;;;;;4068012;29;20479;-82
2021/09/03 10:24:45;;;;;;;14.90;12.17;;;21.90;98.30;;;;;;4068511;29;21219;-84
2021/09/03 10:26:52;;;;;;;14.30;11.33;;;22.00;98.30;;;;;;4083939;29;20558;-83
2021/09/03 10:29:15;;;;;;;14.77;11.13;;;21.90;98.30;;;;;;4094876;29;20442;-83